Time;durP1;ratioP1;P1;durP2;ratioP2;P2;SDS_P1;SDS_P2;PMS_P1;PMS_P2;Temp;Humidity;BMP_temperature;BMP_pressure;BME280_temperature;BME280_humidity;BME280_pressure;Samples;Min_cycle;Max_cycle;Signal;HPM_P1;HPM_P2
2022/06/12 00:01:33;;;;;;;4.23;1.23;;;14.40;47.60;;;;;;5050527;28;20362;-82
2022/06/12 00:04:01;;;;;;;3.53;1.40;;;14.50;48.10;;;;;;5050146;28;20177;-81
2022/06/12 00:06:28;;;;;;;2.67;1.40;;;14.70;47.20;;;;;;5033892;28;20184;-73
2022/06/12 00:08:56;;;;;;;3.13;1.37;;;14.80;47.20;;;;;;5037465;28;20579;-80
2022/06/12 00:11:27;;;;;;;3.43;1.30;;;14.80;46.80;;;;;;5046287;28;20203;-78
2022/06/12 00:13:59;;;;;;;4.70;1.37;;;14.80;47.00;;;;;;5058507;28;20192;-82
2022/06/12 00:16:28;;;;;;;2.43;1.10;;;14.80;46.70;;;;;;5034704;28;20184;-85
2022/06/12 00:18:55;;;;;;;3.00;1.13;;;14.90;46.80;;;;;;5036596;28;20530;-82
2022/06/12 00:21:25;;;;;;;2.37;1.00;;;15.00;46.70;;;;;;5033463;28;20212;-78
2022/06/12 00:24:00;;;;;;;9.83;1.70;;;15.00;46.10;;;;;;5058511;28;20233;-82
2022/06/12 00:26:34;;;;;;;3.37;1.30;;;15.20;46.60;;;;;;5034662;28;20246;-76
2022/06/12 00:29:12;;;;;;;3.20;1.13;;;15.30;45.90;;;;;;5035243;28;20190;-82
2022/06/12 00:31:51;;;;;;;3.53;1.17;;;15.30;45.40;;;;;;5034797;28;20269;-79
2022/06/12 00:34:22;;;;;;;1.83;1.20;;;15.50;45.70;;;;;;5038429;28;20187;-80
2022/06/12 00:36:49;;;;;;;3.27;1.20;;;15.60;44.90;;;;;;5035666;28;20184;-76
2022/06/12 00:39:17;;;;;;;3.40;1.30;;;15.70;44.90;;;;;;5038762;28;20180;-74
2022/06/12 00:41:50;;;;;;;2.67;1.10;;;15.70;44.00;;;;;;5035828;28;20513;-81
2022/06/12 00:44:21;;;;;;;2.90;0.90;;;15.70;44.40;;;;;;5055265;28;20234;-81
2022/06/12 00:46:52;;;;;;;5.43;1.40;;;15.80;44.80;;;;;;5036403;28;20169;-78
2022/06/12 00:49:29;;;;;;;5.10;1.30;;;15.90;44.70;;;;;;5034830;28;20184;-75
2022/06/12 00:52:11;;;;;;;4.63;1.47;;;16.00;43.70;;;;;;5034527;28;20228;-80
2022/06/12 00:54:42;;;;;;;2.77;1.10;;;16.20;43.90;;;;;;5069944;28;20204;-74
2022/06/12 00:57:09;;;;;;;5.67;1.10;;;16.00;43.10;;;;;;5033281;28;20719;-75
2022/06/12 00:59:41;;;;;;;1.93;1.03;;;15.90;43.20;;;;;;5038325;28;20225;-78
2022/06/12 01:02:13;;;;;;;3.10;1.30;;;16.00;43.40;;;;;;5034449;28;20188;-78
2022/06/12 01:07:34;;;;;;;3.17;1.30;;;16.10;42.60;;;;;;5054717;28;20536;-80
2022/06/12 01:10:08;;;;;;;3.07;1.47;;;16.10;43.10;;;;;;5039750;28;20180;-78
2022/06/12 01:12:48;;;;;;;4.07;1.00;;;16.30;42.80;;;;;;5034025;28;20220;-82
2022/06/12 01:15:38;;;;;;;2.90;1.33;;;16.50;42.40;;;;;;5038954;28;20176;-81
2022/06/12 01:18:10;;;;;;;3.83;1.07;;;16.50;41.90;;;;;;5047631;28;20541;-80
2022/06/12 01:20:50;;;;;;;3.63;1.60;;;16.50;42.10;;;;;;5034347;28;20236;-78
2022/06/12 01:23:57;;;;;;;3.53;1.40;;;16.70;41.70;;;;;;5039217;28;20193;-77
2022/06/12 01:26:52;;;;;;;5.30;1.20;;;16.70;41.90;;;;;;5033943;28;20234;-73
2022/06/12 01:29:33;;;;;;;3.60;1.03;;;16.90;41.60;;;;;;5035980;28;20654;-80
2022/06/12 01:32:11;;;;;;;3.93;0.93;;;16.90;41.00;;;;;;5035588;28;20660;-81
2022/06/12 01:34:50;;;;;;;1.67;1.00;;;16.90;40.90;;;;;;5035484;28;20179;-74
2022/06/12 01:37:36;;;;;;;2.43;1.03;;;16.90;40.70;;;;;;5049397;28;20175;-77
2022/06/12 01:40:52;;;;;;;3.00;1.23;;;16.80;41.00;;;;;;5038494;28;20179;-75
2022/06/12 01:43:23;;;;;;;3.23;1.00;;;16.80;40.50;;;;;;5026369;28;20625;-73
2022/06/12 01:46:16;;;;;;;4.07;1.50;;;16.90;40.50;;;;;;5033258;28;20177;-76
2022/06/12 01:49:01;;;;;;;2.60;0.90;;;17.10;40.60;;;;;;5032846;28;20215;-72
2022/06/12 01:51:38;;;;;;;4.10;1.00;;;17.20;40.40;;;;;;5033107;28;20218;-74
2022/06/12 01:54:22;;;;;;;2.53;1.10;;;17.00;40.60;;;;;;5033192;28;20595;-74
2022/06/12 01:57:08;;;;;;;3.30;1.07;;;17.10;40.50;;;;;;5033113;28;20176;-74
2022/06/12 01:59:49;;;;;;;5.50;0.90;;;17.30;40.30;;;;;;5050723;28;20249;-72
2022/06/12 02:02:30;;;;;;;1.60;0.93;;;17.50;40.00;;;;;;5059954;28;20175;-78
2022/06/12 02:05:11;;;;;;;1.73;0.90;;;17.30;40.20;;;;;;5043968;28;20637;-75
2022/06/12 02:07:46;;;;;;;3.93;0.97;;;17.30;39.90;;;;;;5042794;28;20222;-76
2022/06/12 02:10:25;;;;;;;1.70;1.23;;;17.30;39.70;;;;;;5053632;28;20663;-77
2022/06/12 02:13:11;;;;;;;2.10;1.10;;;17.40;39.90;;;;;;5046239;28;20196;-75
2022/06/12 02:16:03;;;;;;;2.60;0.90;;;17.40;39.10;;;;;;5039864;28;20216;-74
2022/06/12 02:18:46;;;;;;;2.93;1.00;;;17.80;38.90;;;;;;5037048;28;20648;-73
2022/06/12 02:21:26;;;;;;;2.13;1.00;;;17.60;38.90;;;;;;5032859;28;20176;-75
2022/06/12 02:24:25;;;;;;;0.97;0.80;;;17.70;38.90;;;;;;5032436;28;20219;-75
2022/06/12 02:27:16;;;;;;;2.40;0.90;;;17.70;38.50;;;;;;5048203;28;20241;-80
2022/06/12 02:30:01;;;;;;;4.97;1.00;;;17.80;38.90;;;;;;5032885;28;20204;-72
2022/06/12 02:33:00;;;;;;;4.07;1.10;;;18.20;37.80;;;;;;5037254;28;20322;-77
2022/06/12 02:35:51;;;;;;;2.50;1.10;;;17.90;37.60;;;;;;5043716;28;20673;-75
2022/06/12 02:38:40;;;;;;;1.97;1.07;;;17.50;38.00;;;;;;5042567;28;20180;-78
2022/06/12 02:41:13;;;;;;;3.57;0.80;;;17.60;38.50;;;;;;5049576;28;20190;-81
2022/06/12 02:43:43;;;;;;;1.47;0.90;;;17.80;38.10;;;;;;5059136;28;20167;-78
2022/06/12 02:46:19;;;;;;;1.63;0.73;;;17.60;38.30;;;;;;5051614;28;20517;-78
2022/06/12 02:48:47;;;;;;;5.53;1.00;;;17.50;38.10;;;;;;5048902;28;20181;-73
2022/06/12 02:51:44;;;;;;;3.30;0.90;;;17.30;38.20;;;;;;5077552;28;20565;-76
2022/06/12 02:54:32;;;;;;;1.77;0.83;;;17.20;38.10;;;;;;5056792;28;20192;-77
2022/06/12 02:57:38;;;;;;;0.83;0.60;;;17.30;38.30;;;;;;5039117;28;20584;-79
2022/06/12 03:00:19;;;;;;;2.37;1.07;;;17.30;38.20;;;;;;5041449;28;20688;-79
2022/06/12 03:02:58;;;;;;;1.10;0.80;;;17.30;38.00;;;;;;5051692;28;20179;-86
2022/06/12 03:05:32;;;;;;;1.10;0.90;;;17.40;38.30;;;;;;5051060;28;20183;-77
2022/06/12 03:08:03;;;;;;;4.77;0.90;;;17.50;38.00;;;;;;5052976;28;20183;-76
2022/06/12 03:10:43;;;;;;;2.17;1.00;;;17.80;37.60;;;;;;5065930;28;20603;-72
2022/06/12 03:13:12;;;;;;;2.07;1.03;;;17.80;37.30;;;;;;5055270;28;20520;-78
2022/06/12 03:15:47;;;;;;;2.07;0.90;;;17.80;37.40;;;;;;5052925;28;20261;-75
2022/06/12 03:18:24;;;;;;;4.50;1.10;;;17.60;37.80;;;;;;5066348;28;20572;-74
2022/06/12 03:21:15;;;;;;;1.00;0.70;;;17.70;37.80;;;;;;5059931;28;20179;-74
2022/06/12 03:23:49;;;;;;;0.90;0.70;;;17.60;37.20;;;;;;5062490;28;20190;-72
2022/06/12 03:26:42;;;;;;;2.50;1.00;;;17.80;37.10;;;;;;5041423;28;20220;-79
2022/06/12 03:29:30;;;;;;;6.20;1.10;;;18.00;37.30;;;;;;5038713;28;20176;-80
2022/06/12 03:32:31;;;;;;;2.33;0.83;;;18.50;36.50;;;;;;5038403;28;20671;-77
2022/06/12 03:35:31;;;;;;;1.80;1.20;;;18.70;36.30;;;;;;5047770;28;20229;-78
2022/06/12 03:38:19;;;;;;;1.17;0.80;;;18.60;36.30;;;;;;5039606;28;20164;-78
2022/06/12 03:41:28;;;;;;;1.40;0.97;;;18.50;36.10;;;;;;5038847;28;20176;-76
2022/06/12 03:44:00;;;;;;;1.83;1.00;;;18.40;36.60;;;;;;5038359;28;20225;-80
2022/06/12 03:46:41;;;;;;;1.60;1.00;;;18.50;36.70;;;;;;5034265;28;20563;-73
2022/06/12 03:49:32;;;;;;;2.03;1.07;;;18.30;36.90;;;;;;5034397;28;20234;-79
2022/06/12 03:52:26;;;;;;;1.30;0.70;;;18.70;36.60;;;;;;5035674;28;20204;-78
2022/06/12 03:58:28;;;;;;;0.77;0.70;;;18.40;37.10;;;;;;5038159;28;20190;-75
2022/06/12 04:00:56;;;;;;;3.27;0.90;;;18.50;36.50;;;;;;5035989;28;20181;-80
2022/06/12 04:03:34;;;;;;;0.83;0.60;;;18.30;37.70;;;;;;5043108;28;20183;-76
2022/06/12 04:06:14;;;;;;;2.33;0.87;;;18.30;37.40;;;;;;5060468;28;20187;-78
2022/06/12 04:09:01;;;;;;;1.43;0.70;;;18.80;37.00;;;;;;5045297;28;20191;-78
2022/06/12 04:11:34;;;;;;;2.83;0.90;;;18.30;37.00;;;;;;5034445;28;20235;-80
2022/06/12 04:14:05;;;;;;;3.50;0.90;;;18.40;37.10;;;;;;5034949;28;20191;-76
2022/06/12 04:16:55;;;;;;;5.10;0.60;;;18.80;36.90;;;;;;5054244;28;20647;-81
2022/06/12 04:19:26;;;;;;;1.57;0.80;;;18.50;36.80;;;;;;5051002;28;20743;-77
2022/06/12 04:21:59;;;;;;;1.57;0.80;;;18.70;37.30;;;;;;5068352;28;20190;-79
2022/06/12 04:24:38;;;;;;;0.90;0.70;;;18.60;37.20;;;;;;5062777;28;20180;-72
2022/06/12 04:27:26;;;;;;;1.40;0.73;;;18.80;36.90;;;;;;5033773;28;20254;-78
2022/06/12 04:29:58;;;;;;;1.07;0.90;;;18.60;37.30;;;;;;5034782;28;20187;-72
2022/06/12 04:32:27;;;;;;;0.77;0.77;;;18.80;37.30;;;;;;5033907;28;20212;-73
2022/06/12 04:34:55;;;;;;;3.57;1.10;;;18.50;37.50;;;;;;5034461;28;20242;-70
2022/06/12 04:37:29;;;;;;;2.20;0.80;;;18.50;37.60;;;;;;5034419;28;20189;-78
2022/06/12 04:39:58;;;;;;;1.60;0.90;;;18.80;37.50;;;;;;5038277;28;20518;-82
2022/06/12 04:42:30;;;;;;;1.10;0.93;;;18.80;37.20;;;;;;5034173;28;20177;-79
2022/06/12 04:45:03;;;;;;;1.83;0.90;;;18.70;37.20;;;;;;5034333;28;20181;-73
2022/06/12 04:47:32;;;;;;;1.77;1.10;;;18.50;37.50;;;;;;5034068;28;20636;-76
2022/06/12 04:49:59;;;;;;;1.10;0.90;;;18.60;37.70;;;;;;5034117;28;20181;-74
2022/06/12 04:52:28;;;;;;;1.17;0.80;;;18.80;36.90;;;;;;5034030;28;20214;-81
2022/06/12 04:54:56;;;;;;;1.10;0.80;;;18.70;37.10;;;;;;5035232;28;20246;-76
2022/06/12 04:57:25;;;;;;;0.70;0.60;;;18.60;37.50;;;;;;5033233;28;20192;-73
2022/06/12 04:59:53;;;;;;;1.57;0.80;;;18.30;38.10;;;;;;5033187;28;20542;-79
2022/06/12 05:02:23;;;;;;;2.93;0.80;;;18.40;38.00;;;;;;5033514;28;20236;-74
2022/06/12 05:04:51;;;;;;;5.77;1.10;;;18.30;38.40;;;;;;5033963;28;20260;-79
2022/06/12 05:07:18;;;;;;;1.33;0.97;;;18.60;38.00;;;;;;5033887;28;20675;-73
2022/06/12 05:09:47;;;;;;;2.00;0.90;;;18.60;37.40;;;;;;5036012;28;20665;-77
2022/06/12 05:12:15;;;;;;;2.60;0.80;;;18.40;38.00;;;;;;5033505;28;20307;-74
2022/06/12 05:14:43;;;;;;;1.77;0.80;;;18.40;38.20;;;;;;5033863;28;20187;-74
2022/06/12 05:17:17;;;;;;;1.07;0.70;;;18.20;38.30;;;;;;5033639;28;20259;-77
2022/06/12 05:19:46;;;;;;;1.37;0.70;;;18.30;38.50;;;;;;5033840;28;20180;-81
2022/06/12 05:22:15;;;;;;;2.87;1.33;;;18.00;38.70;;;;;;5033339;28;20184;-80
2022/06/12 05:24:45;;;;;;;1.47;0.80;;;18.30;38.50;;;;;;5039845;28;20182;-77
2022/06/12 05:27:19;;;;;;;2.13;1.07;;;18.30;38.50;;;;;;5053555;28;20203;-74
2022/06/12 05:29:48;;;;;;;1.07;0.80;;;18.20;38.70;;;;;;5040418;28;20282;-74
2022/06/12 05:32:19;;;;;;;1.37;0.80;;;18.20;39.00;;;;;;5053067;28;20211;-75
2022/06/12 05:34:46;;;;;;;0.97;0.83;;;18.10;39.00;;;;;;5038662;28;20742;-74
2022/06/12 05:37:14;;;;;;;1.90;0.80;;;18.20;38.90;;;;;;5033430;28;20620;-79
2022/06/12 05:39:42;;;;;;;0.80;0.80;;;18.30;39.00;;;;;;5034428;28;20259;-73
2022/06/12 05:42:10;;;;;;;1.93;0.87;;;18.30;38.80;;;;;;5032920;28;20236;-73
2022/06/12 05:44:39;;;;;;;1.20;0.90;;;18.20;39.10;;;;;;5034538;28;20175;-75
2022/06/12 05:47:07;;;;;;;1.63;0.73;;;18.30;38.70;;;;;;5042476;28;20200;-77
2022/06/12 05:49:35;;;;;;;2.10;0.90;;;18.20;38.90;;;;;;5033518;28;20227;-77
2022/06/12 05:52:03;;;;;;;2.50;1.10;;;18.30;39.30;;;;;;5037274;28;20219;-73
2022/06/12 05:54:30;;;;;;;2.00;0.90;;;18.10;39.50;;;;;;5048027;28;20165;-83
2022/06/12 05:56:58;;;;;;;1.70;1.00;;;18.10;39.70;;;;;;5034377;28;20258;-76
2022/06/12 05:59:25;;;;;;;3.07;0.80;;;18.20;39.70;;;;;;5032927;28;20176;-75
2022/06/12 06:01:53;;;;;;;1.30;0.83;;;18.40;39.20;;;;;;5034971;28;20234;-72
2022/06/12 06:04:21;;;;;;;1.60;1.00;;;18.00;39.80;;;;;;5032666;28;20511;-87
2022/06/12 06:06:52;;;;;;;1.73;1.00;;;17.90;40.30;;;;;;5036008;28;20190;-82
2022/06/12 06:09:21;;;;;;;2.03;1.30;;;17.70;40.90;;;;;;5033393;28;20183;-80
2022/06/12 06:11:48;;;;;;;1.43;1.20;;;17.30;41.80;;;;;;5033290;28;20675;-85
2022/06/12 06:14:16;;;;;;;1.43;0.90;;;16.90;42.80;;;;;;5032730;28;20172;-79
2022/06/12 06:16:44;;;;;;;1.17;0.80;;;16.50;43.30;;;;;;5036043;28;20190;-76
2022/06/12 06:19:14;;;;;;;1.13;0.80;;;16.20;43.90;;;;;;5053588;28;20176;-79
2022/06/12 06:21:41;;;;;;;1.13;0.90;;;16.00;44.60;;;;;;5032492;28;20221;-73
2022/06/12 06:24:10;;;;;;;1.83;0.90;;;15.90;45.00;;;;;;5044207;28;20208;-71
2022/06/12 06:26:38;;;;;;;2.23;1.00;;;15.80;45.40;;;;;;5045187;28;20672;-76
2022/06/12 06:29:06;;;;;;;2.73;1.20;;;15.70;45.80;;;;;;5047896;28;20257;-75
2022/06/12 06:31:35;;;;;;;3.50;1.20;;;15.50;46.40;;;;;;5040289;28;20211;-78
2022/06/12 06:34:02;;;;;;;1.90;1.40;;;15.30;46.90;;;;;;5047246;28;20181;-76
2022/06/12 06:36:31;;;;;;;1.57;0.97;;;15.20;47.10;;;;;;5050240;28;20187;-74
2022/06/12 06:38:59;;;;;;;1.40;1.00;;;15.10;47.00;;;;;;5047073;28;20180;-75
2022/06/12 06:41:28;;;;;;;1.57;0.93;;;15.10;47.20;;;;;;5037570;28;20172;-78
2022/06/12 06:46:41;;;;;;;2.00;1.00;;;14.90;47.70;;;;;;5034409;28;20733;-82
2022/06/12 06:49:09;;;;;;;1.83;1.10;;;14.80;48.00;;;;;;5046398;28;20264;-72
2022/06/12 06:51:36;;;;;;;1.93;1.00;;;14.80;48.30;;;;;;5043773;28;20215;-74
2022/06/12 06:54:04;;;;;;;1.60;1.20;;;14.70;48.60;;;;;;5047396;28;20192;-83
2022/06/12 06:56:32;;;;;;;3.77;1.30;;;14.70;48.60;;;;;;5042780;28;20219;-77
2022/06/12 06:59:00;;;;;;;2.20;1.13;;;14.60;48.90;;;;;;5041389;28;20176;-82
2022/06/12 07:01:27;;;;;;;1.20;1.10;;;14.60;48.90;;;;;;5032118;28;20169;-76
2022/06/12 07:03:55;;;;;;;1.33;1.00;;;14.50;49.30;;;;;;5032681;28;20172;-73
2022/06/12 07:06:23;;;;;;;2.60;1.17;;;14.50;49.40;;;;;;5030940;28;20234;-77
2022/06/12 07:08:50;;;;;;;1.27;1.10;;;14.40;49.10;;;;;;5040455;28;20196;-78
2022/06/12 07:11:18;;;;;;;3.80;0.90;;;14.40;49.30;;;;;;5045602;28;20638;-73
2022/06/12 07:13:46;;;;;;;1.20;1.00;;;14.40;49.20;;;;;;5052142;28;20669;-78
2022/06/12 07:16:13;;;;;;;1.70;1.00;;;14.40;49.40;;;;;;5036035;28;20191;-74
2022/06/12 07:18:41;;;;;;;1.57;0.90;;;14.30;49.60;;;;;;5037261;28;20650;-81
2022/06/12 07:21:09;;;;;;;1.73;1.00;;;14.30;49.80;;;;;;5041241;28;20204;-83
2022/06/12 07:23:37;;;;;;;1.53;1.27;;;14.30;49.90;;;;;;5036092;28;20180;-75
2022/06/12 07:26:10;;;;;;;5.67;2.50;;;14.20;50.20;;;;;;5035562;28;20216;-78
2022/06/12 07:28:39;;;;;;;1.27;1.10;;;14.20;50.30;;;;;;5036053;28;20550;-78
2022/06/12 07:31:08;;;;;;;1.57;1.30;;;14.10;50.50;;;;;;5035436;28;20199;-74
2022/06/12 07:33:38;;;;;;;2.47;1.50;;;14.10;50.60;;;;;;5045460;28;20202;-73
2022/06/12 07:36:08;;;;;;;2.00;1.47;;;14.10;50.80;;;;;;5035896;28;20259;-79
2022/06/12 07:38:37;;;;;;;1.67;1.30;;;14.10;50.70;;;;;;5050173;28;20259;-72
2022/06/12 07:41:08;;;;;;;1.30;1.20;;;14.00;50.90;;;;;;5047364;28;20229;-75
2022/06/12 07:43:36;;;;;;;3.83;1.90;;;14.00;51.00;;;;;;5052560;28;20168;-73
2022/06/12 07:46:06;;;;;;;1.23;1.13;;;14.00;51.30;;;;;;5038163;28;20732;-80
2022/06/12 07:48:34;;;;;;;1.77;1.27;;;13.90;51.40;;;;;;5042538;28;20172;-72
2022/06/12 07:51:08;;;;;;;2.43;1.40;;;13.80;51.70;;;;;;5047323;28;20200;-83
2022/06/12 07:53:36;;;;;;;1.70;1.40;;;13.80;51.80;;;;;;5051293;28;20553;-76
2022/06/12 07:56:04;;;;;;;2.13;1.40;;;13.80;51.80;;;;;;5044736;28;20203;-75
2022/06/12 07:58:32;;;;;;;2.33;1.60;;;13.80;52.10;;;;;;5052745;28;20180;-78
2022/06/12 08:01:04;;;;;;;2.33;1.60;;;13.70;52.30;;;;;;5051330;28;20186;-82
2022/06/12 08:03:32;;;;;;;1.77;1.60;;;13.80;52.30;;;;;;5067405;28;20175;-81
2022/06/12 08:06:00;;;;;;;2.90;1.50;;;13.70;52.50;;;;;;5060792;28;20182;-77
2022/06/12 08:08:29;;;;;;;3.13;1.50;;;13.70;52.60;;;;;;5058476;28;20716;-80
2022/06/12 08:10:56;;;;;;;2.00;1.70;;;13.70;52.80;;;;;;5049933;28;20179;-74
2022/06/12 08:13:24;;;;;;;2.57;1.40;;;13.60;52.90;;;;;;5057670;28;20264;-81
2022/06/12 08:15:53;;;;;;;3.50;1.70;;;13.60;53.00;;;;;;5033892;28;20277;-78
2022/06/12 08:18:22;;;;;;;1.40;1.20;;;13.60;52.90;;;;;;5040821;28;20184;-74
2022/06/12 08:20:53;;;;;;;1.40;1.30;;;13.50;53.30;;;;;;5043506;28;20177;-77
2022/06/12 08:23:32;;;;;;;2.47;1.60;;;13.50;53.30;;;;;;5046427;28;20198;-78
2022/06/12 08:26:13;;;;;;;1.70;1.23;;;13.50;53.50;;;;;;5054990;28;20223;-76
2022/06/12 08:28:50;;;;;;;1.13;1.07;;;13.50;53.60;;;;;;5041904;28;20573;-79
2022/06/12 08:31:22;;;;;;;2.27;1.30;;;13.40;53.90;;;;;;5054760;28;20202;-73
2022/06/12 08:33:52;;;;;;;2.10;1.33;;;13.40;54.00;;;;;;5066244;28;20191;-75
2022/06/12 08:36:21;;;;;;;1.57;1.20;;;13.40;54.10;;;;;;5044700;28;20188;-73
2022/06/12 08:38:52;;;;;;;1.73;1.20;;;13.30;54.10;;;;;;5044472;28;20176;-78
2022/06/12 08:41:41;;;;;;;1.80;1.27;;;13.40;54.10;;;;;;5034384;28;20275;-77
2022/06/12 08:44:44;;;;;;;2.67;1.20;;;13.30;54.50;;;;;;5054101;28;20275;-78
2022/06/12 08:47:40;;;;;;;1.30;1.07;;;13.30;54.60;;;;;;5044941;28;20179;-79
2022/06/12 08:50:22;;;;;;;2.10;1.20;;;13.30;54.50;;;;;;5048644;28;20183;-76
2022/06/12 08:52:59;;;;;;;1.87;1.17;;;13.30;54.90;;;;;;5063548;28;20246;-80
2022/06/12 08:55:37;;;;;;;1.37;1.10;;;13.20;55.00;;;;;;5053940;28;20575;-74
2022/06/12 08:58:22;;;;;;;1.23;1.13;;;13.20;55.30;;;;;;5037054;28;20184;-78
2022/06/12 09:00:50;;;;;;;1.93;1.30;;;13.20;55.30;;;;;;5036977;28;20187;-79
2022/06/12 09:03:26;;;;;;;1.20;1.10;;;13.10;55.50;;;;;;5033276;28;20176;-83
2022/06/12 09:06:14;;;;;;;1.37;1.27;;;13.20;55.50;;;;;;5051341;28;20191;-77
2022/06/12 09:09:28;;;;;;;1.80;1.00;;;13.10;55.70;;;;;;5054381;28;20183;-72
2022/06/12 09:12:13;;;;;;;2.20;1.20;;;13.10;56.00;;;;;;5051311;28;20224;-84
2022/06/12 09:15:04;;;;;;;1.60;1.40;;;13.00;56.50;;;;;;5033991;28;20546;-74
2022/06/12 09:17:56;;;;;;;1.93;1.47;;;13.00;56.70;;;;;;5032565;28;20188;-82
2022/06/12 09:20:32;;;;;;;2.07;1.27;;;12.90;56.60;;;;;;5036755;28;20649;-75
2022/06/12 09:23:17;;;;;;;1.63;1.47;;;12.90;56.60;;;;;;5041714;28;20181;-74
2022/06/12 09:26:00;;;;;;;1.50;1.17;;;12.80;57.00;;;;;;5033643;28;20589;-85
2022/06/12 09:28:30;;;;;;;1.97;1.47;;;12.90;56.70;;;;;;5048543;28;20189;-72
2022/06/12 09:31:21;;;;;;;2.60;1.40;;;12.80;57.00;;;;;;5052965;28;20196;-79
2022/06/12 09:34:04;;;;;;;2.10;1.60;;;12.80;57.00;;;;;;5033630;28;20200;-78
2022/06/12 09:38:18;;;;;;;1.73;1.30;;;12.70;57.50;;;;;;5033032;28;20705;-80
2022/06/12 09:40:16;;;;;;;1.53;1.43;;;12.70;57.50;;;;;;5028534;28;20194;-79
2022/06/12 09:43:01;;;;;;;1.40;1.30;;;12.70;57.80;;;;;;5032416;28;20230;-80
2022/06/12 09:45:41;;;;;;;1.90;1.30;;;12.70;58.00;;;;;;5032291;28;20200;-78
2022/06/12 09:48:13;;;;;;;1.20;1.10;;;12.60;58.00;;;;;;5035288;28;20654;-76
2022/06/12 09:51:05;;;;;;;2.23;1.20;;;12.70;58.10;;;;;;5038267;28;20184;-81
2022/06/12 09:53:44;;;;;;;1.80;1.50;;;12.60;58.20;;;;;;5033124;28;20658;-78
2022/06/12 09:56:23;;;;;;;1.93;1.37;;;12.60;58.40;;;;;;5034381;28;20184;-78
2022/06/12 09:59:07;;;;;;;1.50;1.40;;;12.50;58.70;;;;;;5038550;28;20279;-85
2022/06/12 10:01:40;;;;;;;1.43;1.33;;;12.50;58.80;;;;;;5032878;28;20184;-78
2022/06/12 10:04:14;;;;;;;1.60;1.50;;;12.50;58.90;;;;;;5033138;28;20195;-75
2022/06/12 10:06:48;;;;;;;2.93;1.30;;;12.40;58.90;;;;;;5044783;28;20183;-78
2022/06/12 10:09:36;;;;;;;1.97;1.77;;;12.40;59.00;;;;;;5044957;28;20191;-79
2022/06/12 10:12:27;;;;;;;2.80;1.80;;;12.40;59.00;;;;;;5045370;28;20217;-78
2022/06/12 10:15:00;;;;;;;2.03;1.53;;;12.40;59.10;;;;;;5055097;28;20234;-84
2022/06/12 10:18:05;;;;;;;1.70;1.60;;;12.30;59.40;;;;;;5051181;28;20278;-82
2022/06/12 10:20:44;;;;;;;2.73;1.70;;;12.30;59.60;;;;;;5033772;28;20180;-85
2022/06/12 10:23:11;;;;;;;2.97;1.90;;;12.30;59.60;;;;;;5031893;28;20592;-83
2022/06/12 10:25:45;;;;;;;3.57;2.07;;;12.30;59.70;;;;;;5039688;28;20214;-81
2022/06/12 10:28:16;;;;;;;2.87;2.00;;;12.20;60.10;;;;;;5054461;28;20187;-83
2022/06/12 10:31:08;;;;;;;3.23;1.87;;;12.10;60.50;;;;;;5041872;28;20552;-79
2022/06/12 10:33:57;;;;;;;2.10;1.90;;;12.00;60.70;;;;;;5044431;28;20193;-75
2022/06/12 10:36:26;;;;;;;4.50;2.20;;;11.90;61.30;;;;;;5032255;28;20180;-78
2022/06/12 10:39:23;;;;;;;3.20;1.87;;;11.80;61.40;;;;;;5048857;28;20702;-83
2022/06/12 10:41:54;;;;;;;4.47;2.20;;;11.90;61.40;;;;;;5031466;28;20187;-76
2022/06/12 10:44:58;;;;;;;5.37;2.30;;;11.80;61.60;;;;;;5040281;28;20605;-77
2022/06/12 10:47:30;;;;;;;4.03;2.30;;;11.80;61.80;;;;;;5038607;28;20172;-76
2022/06/12 10:50:33;;;;;;;3.50;2.20;;;11.80;61.90;;;;;;5051411;28;20252;-79
2022/06/12 10:53:10;;;;;;;4.37;2.30;;;11.80;61.70;;;;;;5031658;28;20261;-80
2022/06/12 10:55:51;;;;;;;2.30;2.10;;;11.80;61.50;;;;;;5053256;28;20182;-78
2022/06/12 10:58:27;;;;;;;3.50;1.87;;;11.90;61.70;;;;;;5035646;28;20191;-82
2022/06/12 11:00:59;;;;;;;2.63;1.70;;;11.90;61.70;;;;;;5037070;28;20182;-80
2022/06/12 11:03:44;;;;;;;2.70;2.03;;;11.80;61.70;;;;;;5036690;28;20179;-81
2022/06/12 11:06:37;;;;;;;3.10;2.07;;;11.80;61.80;;;;;;5057649;28;20203;-77
2022/06/12 11:09:36;;;;;;;2.83;2.50;;;11.80;61.90;;;;;;5051810;28;20180;-80
2022/06/12 11:12:22;;;;;;;2.87;2.53;;;11.80;61.90;;;;;;5036010;28;20219;-79
2022/06/12 11:14:52;;;;;;;2.67;2.20;;;11.70;62.10;;;;;;5036551;28;20198;-76
2022/06/12 11:17:42;;;;;;;3.37;2.10;;;11.80;62.30;;;;;;5036059;28;20623;-82
2022/06/12 11:20:37;;;;;;;2.43;1.87;;;11.80;62.10;;;;;;5067378;28;20546;-81
2022/06/12 11:23:31;;;;;;;2.60;1.93;;;11.80;62.30;;;;;;5036283;28;20207;-82
2022/06/12 11:26:23;;;;;;;2.27;1.93;;;11.80;62.20;;;;;;5058611;28;20554;-78
2022/06/12 11:29:27;;;;;;;2.27;1.90;;;11.80;62.10;;;;;;5035899;28;20233;-89
2022/06/12 11:32:26;;;;;;;2.60;2.10;;;11.80;62.30;;;;;;5035795;28;20269;-80
2022/06/12 11:34:56;;;;;;;2.90;1.97;;;11.80;62.20;;;;;;5046067;28;20215;-80
2022/06/12 11:37:48;;;;;;;2.63;2.20;;;11.70;62.40;;;;;;5047883;28;20204;-84
2022/06/12 11:40:33;;;;;;;4.50;1.90;;;11.80;62.50;;;;;;5040860;28;20195;-84
2022/06/12 11:43:10;;;;;;;2.67;1.70;;;11.70;62.40;;;;;;5035600;28;20178;-84
2022/06/12 11:45:55;;;;;;;2.10;1.90;;;11.70;62.60;;;;;;5039633;28;20262;-79
2022/06/12 11:48:28;;;;;;;3.63;2.33;;;11.70;62.70;;;;;;5040115;28;20658;-79
2022/06/12 11:51:07;;;;;;;3.63;1.90;;;11.70;63.00;;;;;;5044264;28;20177;-77
2022/06/12 11:53:57;;;;;;;2.97;2.43;;;11.70;63.10;;;;;;5039662;28;20187;-84
2022/06/12 11:56:38;;;;;;;3.60;2.13;;;11.60;63.40;;;;;;5058088;28;20175;-77
2022/06/12 11:59:30;;;;;;;2.80;2.20;;;11.50;63.40;;;;;;5044604;28;20612;-82
2022/06/12 12:02:27;;;;;;;3.60;2.27;;;11.50;63.70;;;;;;5058804;28;20195;-81
2022/06/12 12:05:00;;;;;;;2.97;2.40;;;11.40;63.90;;;;;;5034632;28;20269;-78
2022/06/12 12:07:49;;;;;;;3.70;2.63;;;11.30;64.30;;;;;;5046419;28;20180;-84
2022/06/12 12:10:47;;;;;;;3.03;2.20;;;11.20;64.50;;;;;;5035520;28;20218;-82
2022/06/12 12:13:20;;;;;;;1.90;1.80;;;11.20;64.70;;;;;;5035885;28;20196;-86
2022/06/12 12:15:59;;;;;;;3.87;2.00;;;11.20;64.70;;;;;;5052425;28;20259;-79
2022/06/12 12:18:46;;;;;;;3.17;2.10;;;11.20;64.90;;;;;;5049702;28;20180;-80
2022/06/12 12:21:41;;;;;;;2.20;1.80;;;11.20;65.10;;;;;;5035697;28;20180;-81
2022/06/12 12:24:17;;;;;;;3.20;1.87;;;11.10;65.20;;;;;;5039874;28;20649;-80
2022/06/12 12:26:45;;;;;;;1.77;1.67;;;11.10;65.20;;;;;;5061754;28;20370;-81
2022/06/12 12:29:24;;;;;;;2.50;1.67;;;11.10;65.40;;;;;;5039530;28;20191;-82
2022/06/12 12:31:52;;;;;;;2.53;1.97;;;11.10;65.40;;;;;;5034750;28;20207;-80
2022/06/12 12:34:23;;;;;;;2.70;1.80;;;11.10;65.40;;;;;;5034669;28;20179;-87
2022/06/12 12:42:37;;;;;;;2.93;1.87;;;11.00;65.40;;;;;;5039167;28;20783;-79
2022/06/12 12:45:31;;;;;;;2.80;2.00;;;11.00;65.80;;;;;;5059644;28;20269;-82
2022/06/12 12:48:00;;;;;;;3.37;2.23;;;11.00;65.60;;;;;;5067502;28;20176;-84
2022/06/12 12:50:29;;;;;;;3.10;1.90;;;11.00;65.90;;;;;;5034059;28;20237;-87
2022/06/12 12:52:59;;;;;;;2.97;2.10;;;10.90;65.90;;;;;;5034449;28;20278;-86
2022/06/12 12:55:41;;;;;;;3.83;1.93;;;10.80;66.10;;;;;;5053456;28;20270;-85
2022/06/12 12:58:19;;;;;;;2.30;2.00;;;10.80;66.50;;;;;;5039644;28;20274;-80
2022/06/12 13:00:47;;;;;;;2.43;2.00;;;10.70;66.80;;;;;;5041800;28;20277;-79
2022/06/12 13:03:46;;;;;;;3.50;2.10;;;10.70;66.90;;;;;;5039181;28;20218;-79
2022/06/12 13:06:16;;;;;;;4.80;2.13;;;10.70;67.30;;;;;;5036036;28;20187;-80
2022/06/12 13:09:07;;;;;;;2.30;2.00;;;10.50;67.30;;;;;;5041080;28;20179;-79
2022/06/12 13:11:47;;;;;;;2.57;1.97;;;10.50;67.80;;;;;;5034112;28;20204;-82
2022/06/12 13:14:36;;;;;;;3.07;2.53;;;10.50;68.00;;;;;;5040794;28;20248;-80
2022/06/12 13:17:13;;;;;;;2.93;2.30;;;10.50;68.30;;;;;;5050542;28;20194;-81
2022/06/12 13:20:15;;;;;;;3.43;2.17;;;10.30;68.70;;;;;;5033364;28;20192;-80
2022/06/12 13:23:09;;;;;;;2.67;2.20;;;10.20;69.70;;;;;;5018568;28;20209;-80
2022/06/12 13:25:49;;;;;;;3.03;2.40;;;10.30;70.00;;;;;;5034988;28;20227;-79
2022/06/12 13:28:29;;;;;;;4.10;2.50;;;10.20;70.10;;;;;;5033332;28;20237;-79
2022/06/12 13:30:57;;;;;;;2.90;2.60;;;10.10;70.30;;;;;;5033749;28;20226;-88
2022/06/12 13:33:34;;;;;;;4.50;3.00;;;10.10;70.80;;;;;;5033562;28;20188;-85
2022/06/12 13:36:06;;;;;;;3.60;2.70;;;10.00;70.80;;;;;;5031932;28;20191;-85
2022/06/12 13:38:52;;;;;;;3.17;2.40;;;10.00;70.80;;;;;;5061333;28;20186;-82
2022/06/12 13:41:26;;;;;;;3.30;2.77;;;10.00;70.70;;;;;;5052292;28;20224;-80
2022/06/12 13:43:55;;;;;;;3.27;2.70;;;10.10;70.40;;;;;;5039874;28;20201;-81
2022/06/12 13:46:33;;;;;;;3.80;2.70;;;10.10;70.50;;;;;;5046426;28;20176;-80
2022/06/12 13:49:02;;;;;;;3.83;3.03;;;10.10;70.60;;;;;;5055275;28;20546;-85
2022/06/12 13:51:51;;;;;;;5.53;3.17;;;10.20;70.60;;;;;;5050713;28;20253;-80
2022/06/12 13:54:21;;;;;;;4.07;3.00;;;10.10;70.60;;;;;;5052411;28;20240;-78
2022/06/12 13:56:58;;;;;;;4.07;3.00;;;10.10;70.50;;;;;;5052265;28;20178;-81